sensor_id;sensor_type;location;lat;lon;timestamp;P1;durP1;ratioP1;P2;durP2;ratioP2
54167;SDS011;68429;50.958;3.592;2024-02-26T00:00:29;0.68;;;0.68;;
54167;SDS011;68429;50.958;3.592;2024-02-26T00:02:55;4.97;;;1.08;;
54167;SDS011;68429;50.958;3.592;2024-02-26T00:05:21;2.08;;;1.20;;
54167;SDS011;68429;50.958;3.592;2024-02-26T00:07:48;1.10;;;1.00;;
54167;SDS011;68429;50.958;3.592;2024-02-26T00:10:15;2.08;;;1.10;;
54167;SDS011;68429;50.958;3.592;2024-02-26T00:12:40;3.28;;;1.25;;
54167;SDS011;68429;50.958;3.592;2024-02-26T00:15:06;3.20;;;1.08;;
54167;SDS011;68429;50.958;3.592;2024-02-26T00:17:36;3.85;;;1.40;;
54167;SDS011;68429;50.958;3.592;2024-02-26T00:20:02;2.00;;;1.13;;
54167;SDS011;68429;50.958;3.592;2024-02-26T00:22:33;2.85;;;1.35;;
54167;SDS011;68429;50.958;3.592;2024-02-26T00:25:00;3.10;;;1.25;;
54167;SDS011;68429;50.958;3.592;2024-02-26T00:27:26;4.60;;;1.48;;
54167;SDS011;68429;50.958;3.592;2024-02-26T00:29:51;2.10;;;1.38;;
54167;SDS011;68429;50.958;3.592;2024-02-26T00:32:17;2.72;;;1.48;;
54167;SDS011;68429;50.958;3.592;2024-02-26T00:34:43;1.58;;;1.10;;
54167;SDS011;68429;50.958;3.592;2024-02-26T00:37:09;2.80;;;1.30;;
54167;SDS011;68429;50.958;3.592;2024-02-26T00:39:34;2.78;;;1.30;;
54167;SDS011;68429;50.958;3.592;2024-02-26T00:42:00;4.22;;;2.38;;
54167;SDS011;68429;50.958;3.592;2024-02-26T00:44:26;1.45;;;0.70;;
54167;SDS011;68429;50.958;3.592;2024-02-26T00:46:51;4.07;;;1.48;;
54167;SDS011;68429;50.958;3.592;2024-02-26T00:49:17;2.45;;;0.98;;
54167;SDS011;68429;50.958;3.592;2024-02-26T00:51:43;5.53;;;1.80;;
54167;SDS011;68429;50.958;3.592;2024-02-26T00:54:08;1.45;;;1.00;;
54167;SDS011;68429;50.958;3.592;2024-02-26T00:56:34;3.15;;;1.30;;
54167;SDS011;68429;50.958;3.592;2024-02-26T00:58:59;1.80;;;1.05;;
54167;SDS011;68429;50.958;3.592;2024-02-26T01:01:25;1.92;;;1.25;;
54167;SDS011;68429;50.958;3.592;2024-02-26T01:03:51;5.35;;;1.20;;
54167;SDS011;68429;50.958;3.592;2024-02-26T01:06:17;4.28;;;1.85;;
54167;SDS011;68429;50.958;3.592;2024-02-26T01:08:43;3.08;;;1.67;;
54167;SDS011;68429;50.958;3.592;2024-02-26T01:11:08;4.82;;;1.42;;
54167;SDS011;68429;50.958;3.592;2024-02-26T01:13:35;3.03;;;1.52;;
54167;SDS011;68429;50.958;3.592;2024-02-26T01:16:01;2.08;;;1.40;;
54167;SDS011;68429;50.958;3.592;2024-02-26T01:18:27;3.70;;;1.98;;
54167;SDS011;68429;50.958;3.592;2024-02-26T01:20:53;2.63;;;1.63;;
54167;SDS011;68429;50.958;3.592;2024-02-26T01:23:21;2.33;;;1.42;;
54167;SDS011;68429;50.958;3.592;2024-02-26T01:25:47;1.73;;;1.30;;
54167;SDS011;68429;50.958;3.592;2024-02-26T01:28:13;3.08;;;1.20;;
54167;SDS011;68429;50.958;3.592;2024-02-26T01:30:39;4.20;;;1.40;;
54167;SDS011;68429;50.958;3.592;2024-02-26T01:33:05;1.83;;;1.20;;
54167;SDS011;68429;50.958;3.592;2024-02-26T01:35:30;1.80;;;1.55;;
54167;SDS011;68429;50.958;3.592;2024-02-26T01:37:56;1.20;;;1.10;;
54167;SDS011;68429;50.958;3.592;2024-02-26T01:40:26;3.97;;;1.40;;
54167;SDS011;68429;50.958;3.592;2024-02-26T01:42:52;5.82;;;1.60;;
54167;SDS011;68429;50.958;3.592;2024-02-26T01:45:18;2.60;;;1.20;;
54167;SDS011;68429;50.958;3.592;2024-02-26T01:47:52;1.90;;;1.40;;
54167;SDS011;68429;50.958;3.592;2024-02-26T01:50:20;4.82;;;2.20;;
54167;SDS011;68429;50.958;3.592;2024-02-26T01:52:47;7.22;;;1.75;;
54167;SDS011;68429;50.958;3.592;2024-02-26T01:55:15;2.50;;;1.30;;
54167;SDS011;68429;50.958;3.592;2024-02-26T01:57:42;6.22;;;1.25;;
54167;SDS011;68429;50.958;3.592;2024-02-26T02:00:10;4.25;;;1.25;;
54167;SDS011;68429;50.958;3.592;2024-02-26T02:02:37;1.77;;;1.08;;
54167;SDS011;68429;50.958;3.592;2024-02-26T02:05:05;2.92;;;1.17;;
54167;SDS011;68429;50.958;3.592;2024-02-26T02:07:32;1.92;;;1.02;;
54167;SDS011;68429;50.958;3.592;2024-02-26T02:09:59;2.80;;;1.92;;
54167;SDS011;68429;50.958;3.592;2024-02-26T02:12:25;1.52;;;0.93;;
54167;SDS011;68429;50.958;3.592;2024-02-26T02:14:51;2.45;;;1.17;;
54167;SDS011;68429;50.958;3.592;2024-02-26T02:17:17;1.13;;;0.82;;
54167;SDS011;68429;50.958;3.592;2024-02-26T02:19:43;2.60;;;1.33;;
54167;SDS011;68429;50.958;3.592;2024-02-26T02:22:09;1.95;;;1.27;;
54167;SDS011;68429;50.958;3.592;2024-02-26T02:24:35;1.67;;;1.58;;
54167;SDS011;68429;50.958;3.592;2024-02-26T02:27:00;5.65;;;1.70;;
54167;SDS011;68429;50.958;3.592;2024-02-26T02:29:26;1.20;;;1.05;;
54167;SDS011;68429;50.958;3.592;2024-02-26T02:31:53;1.70;;;1.60;;
54167;SDS011;68429;50.958;3.592;2024-02-26T02:34:20;3.70;;;1.52;;
54167;SDS011;68429;50.958;3.592;2024-02-26T02:36:53;3.53;;;1.38;;
54167;SDS011;68429;50.958;3.592;2024-02-26T02:39:19;2.30;;;1.23;;
54167;SDS011;68429;50.958;3.592;2024-02-26T02:41:45;4.13;;;1.50;;
54167;SDS011;68429;50.958;3.592;2024-02-26T02:44:11;1.50;;;1.17;;
54167;SDS011;68429;50.958;3.592;2024-02-26T02:46:37;1.95;;;1.50;;
54167;SDS011;68429;50.958;3.592;2024-02-26T02:49:08;3.03;;;1.05;;
54167;SDS011;68429;50.958;3.592;2024-02-26T02:51:35;2.22;;;1.17;;
54167;SDS011;68429;50.958;3.592;2024-02-26T02:54:01;1.88;;;1.35;;
54167;SDS011;68429;50.958;3.592;2024-02-26T02:56:26;0.90;;;0.80;;
54167;SDS011;68429;50.958;3.592;2024-02-26T02:58:52;3.58;;;1.40;;
54167;SDS011;68429;50.958;3.592;2024-02-26T03:01:18;3.65;;;1.30;;
54167;SDS011;68429;50.958;3.592;2024-02-26T03:03:43;1.63;;;0.90;;
54167;SDS011;68429;50.958;3.592;2024-02-26T03:06:09;1.40;;;1.00;;
54167;SDS011;68429;50.958;3.592;2024-02-26T03:08:35;3.72;;;1.42;;
54167;SDS011;68429;50.958;3.592;2024-02-26T03:11:03;3.17;;;1.30;;
54167;SDS011;68429;50.958;3.592;2024-02-26T03:13:29;3.58;;;0.93;;
54167;SDS011;68429;50.958;3.592;2024-02-26T03:15:55;0.75;;;0.68;;
54167;SDS011;68429;50.958;3.592;2024-02-26T03:18:20;2.00;;;1.90;;
54167;SDS011;68429;50.958;3.592;2024-02-26T03:20:46;2.53;;;1.70;;
54167;SDS011;68429;50.958;3.592;2024-02-26T03:23:12;1.75;;;1.30;;
54167;SDS011;68429;50.958;3.592;2024-02-26T03:25:41;2.40;;;1.70;;
54167;SDS011;68429;50.958;3.592;2024-02-26T03:28:09;3.30;;;2.50;;
54167;SDS011;68429;50.958;3.592;2024-02-26T03:30:37;2.67;;;2.00;;
54167;SDS011;68429;50.958;3.592;2024-02-26T03:33:03;3.40;;;1.90;;
54167;SDS011;68429;50.958;3.592;2024-02-26T03:35:29;3.85;;;2.15;;
54167;SDS011;68429;50.958;3.592;2024-02-26T03:37:55;2.58;;;1.85;;
54167;SDS011;68429;50.958;3.592;2024-02-26T03:40:20;2.33;;;1.90;;
54167;SDS011;68429;50.958;3.592;2024-02-26T03:42:48;4.03;;;2.95;;
54167;SDS011;68429;50.958;3.592;2024-02-26T03:45:14;4.38;;;2.70;;
54167;SDS011;68429;50.958;3.592;2024-02-26T03:47:40;3.35;;;2.60;;
54167;SDS011;68429;50.958;3.592;2024-02-26T03:50:06;2.22;;;2.03;;
54167;SDS011;68429;50.958;3.592;2024-02-26T03:52:32;4.68;;;2.88;;
54167;SDS011;68429;50.958;3.592;2024-02-26T03:54:59;3.58;;;2.75;;
54167;SDS011;68429;50.958;3.592;2024-02-26T03:57:24;3.50;;;2.65;;
54167;SDS011;68429;50.958;3.592;2024-02-26T03:59:50;3.42;;;3.13;;
54167;SDS011;68429;50.958;3.592;2024-02-26T04:02:16;3.53;;;2.70;;
54167;SDS011;68429;50.958;3.592;2024-02-26T04:04:44;5.60;;;3.05;;
54167;SDS011;68429;50.958;3.592;2024-02-26T04:07:11;3.58;;;2.75;;
54167;SDS011;68429;50.958;3.592;2024-02-26T04:09:38;5.75;;;4.63;;
54167;SDS011;68429;50.958;3.592;2024-02-26T04:12:03;6.25;;;3.78;;
54167;SDS011;68429;50.958;3.592;2024-02-26T04:14:30;3.88;;;3.58;;
54167;SDS011;68429;50.958;3.592;2024-02-26T04:16:57;7.68;;;3.75;;
54167;SDS011;68429;50.958;3.592;2024-02-26T04:19:23;6.45;;;3.80;;
54167;SDS011;68429;50.958;3.592;2024-02-26T04:21:51;4.30;;;3.75;;
54167;SDS011;68429;50.958;3.592;2024-02-26T04:24:17;4.07;;;3.67;;
54167;SDS011;68429;50.958;3.592;2024-02-26T04:26:42;4.43;;;3.17;;
54167;SDS011;68429;50.958;3.592;2024-02-26T04:29:08;6.22;;;3.90;;
54167;SDS011;68429;50.958;3.592;2024-02-26T04:31:34;4.80;;;4.22;;
54167;SDS011;68429;50.958;3.592;2024-02-26T04:33:59;6.50;;;5.32;;
54167;SDS011;68429;50.958;3.592;2024-02-26T04:36:25;5.15;;;4.63;;
54167;SDS011;68429;50.958;3.592;2024-02-26T04:38:51;5.85;;;4.85;;
54167;SDS011;68429;50.958;3.592;2024-02-26T04:41:20;8.10;;;6.53;;
54167;SDS011;68429;50.958;3.592;2024-02-26T04:43:46;6.32;;;5.47;;
54167;SDS011;68429;50.958;3.592;2024-02-26T04:46:13;9.00;;;5.13;;
54167;SDS011;68429;50.958;3.592;2024-02-26T04:48:38;7.63;;;5.68;;
54167;SDS011;68429;50.958;3.592;2024-02-26T04:51:06;7.03;;;4.97;;
54167;SDS011;68429;50.958;3.592;2024-02-26T04:53:34;9.07;;;7.40;;
54167;SDS011;68429;50.958;3.592;2024-02-26T04:56:00;8.30;;;6.53;;
54167;SDS011;68429;50.958;3.592;2024-02-26T04:58:26;8.65;;;7.47;;
54167;SDS011;68429;50.958;3.592;2024-02-26T05:00:52;8.80;;;7.88;;
54167;SDS011;68429;50.958;3.592;2024-02-26T05:03:17;9.38;;;5.80;;
54167;SDS011;68429;50.958;3.592;2024-02-26T05:05:43;6.63;;;5.82;;
54167;SDS011;68429;50.958;3.592;2024-02-26T05:08:09;4.95;;;4.53;;
54167;SDS011;68429;50.958;3.592;2024-02-26T05:10:35;9.77;;;6.95;;
54167;SDS011;68429;50.958;3.592;2024-02-26T05:13:04;7.90;;;6.00;;
54167;SDS011;68429;50.958;3.592;2024-02-26T05:15:30;8.35;;;5.72;;
54167;SDS011;68429;50.958;3.592;2024-02-26T05:17:56;7.65;;;6.38;;
54167;SDS011;68429;50.958;3.592;2024-02-26T05:20:21;8.00;;;5.43;;
54167;SDS011;68429;50.958;3.592;2024-02-26T05:22:47;6.32;;;5.72;;
54167;SDS011;68429;50.958;3.592;2024-02-26T05:25:15;9.13;;;6.07;;
54167;SDS011;68429;50.958;3.592;2024-02-26T05:27:41;7.90;;;6.32;;
54167;SDS011;68429;50.958;3.592;2024-02-26T05:30:08;10.45;;;6.07;;
54167;SDS011;68429;50.958;3.592;2024-02-26T05:32:34;7.07;;;4.45;;
54167;SDS011;68429;50.958;3.592;2024-02-26T05:35:00;6.03;;;5.40;;
54167;SDS011;68429;50.958;3.592;2024-02-26T05:37:28;6.57;;;5.30;;
54167;SDS011;68429;50.958;3.592;2024-02-26T05:39:53;5.05;;;4.63;;
54167;SDS011;68429;50.958;3.592;2024-02-26T05:42:19;6.20;;;3.83;;
54167;SDS011;68429;50.958;3.592;2024-02-26T05:44:44;7.93;;;5.88;;
54167;SDS011;68429;50.958;3.592;2024-02-26T05:47:10;6.07;;;4.65;;
54167;SDS011;68429;50.958;3.592;2024-02-26T05:49:36;6.53;;;6.00;;
54167;SDS011;68429;50.958;3.592;2024-02-26T05:52:01;7.72;;;6.25;;
54167;SDS011;68429;50.958;3.592;2024-02-26T05:54:27;7.32;;;6.68;;
54167;SDS011;68429;50.958;3.592;2024-02-26T05:56:57;9.02;;;6.63;;
54167;SDS011;68429;50.958;3.592;2024-02-26T05:59:29;6.18;;;5.53;;
54167;SDS011;68429;50.958;3.592;2024-02-26T06:01:55;5.60;;;5.07;;
54167;SDS011;68429;50.958;3.592;2024-02-26T06:04:20;8.75;;;6.78;;
54167;SDS011;68429;50.958;3.592;2024-02-26T06:06:49;9.75;;;7.35;;
54167;SDS011;68429;50.958;3.592;2024-02-26T06:09:15;7.95;;;5.60;;
54167;SDS011;68429;50.958;3.592;2024-02-26T06:11:41;7.05;;;5.72;;
54167;SDS011;68429;50.958;3.592;2024-02-26T06:14:08;11.10;;;7.13;;
54167;SDS011;68429;50.958;3.592;2024-02-26T06:16:34;6.75;;;5.88;;
54167;SDS011;68429;50.958;3.592;2024-02-26T06:19:02;4.47;;;4.07;;
54167;SDS011;68429;50.958;3.592;2024-02-26T06:21:31;8.27;;;7.47;;
54167;SDS011;68429;50.958;3.592;2024-02-26T06:24:16;8.45;;;7.15;;
54167;SDS011;68429;50.958;3.592;2024-02-26T06:26:42;10.82;;;8.95;;
54167;SDS011;68429;50.958;3.592;2024-02-26T06:29:08;9.95;;;6.70;;
54167;SDS011;68429;50.958;3.592;2024-02-26T06:31:33;8.57;;;7.03;;
54167;SDS011;68429;50.958;3.592;2024-02-26T06:33:59;6.13;;;4.97;;
54167;SDS011;68429;50.958;3.592;2024-02-26T06:36:24;9.35;;;8.35;;
54167;SDS011;68429;50.958;3.592;2024-02-26T06:38:50;8.30;;;6.90;;
54167;SDS011;68429;50.958;3.592;2024-02-26T06:41:19;6.60;;;5.80;;
54167;SDS011;68429;50.958;3.592;2024-02-26T06:43:44;10.48;;;8.07;;
54167;SDS011;68429;50.958;3.592;2024-02-26T06:46:10;11.18;;;4.97;;
54167;SDS011;68429;50.958;3.592;2024-02-26T06:48:35;6.85;;;6.25;;
54167;SDS011;68429;50.958;3.592;2024-02-26T06:51:02;10.85;;;8.80;;
54167;SDS011;68429;50.958;3.592;2024-02-26T06:53:28;8.10;;;6.60;;
54167;SDS011;68429;50.958;3.592;2024-02-26T06:55:53;8.95;;;8.05;;
54167;SDS011;68429;50.958;3.592;2024-02-26T06:58:19;10.93;;;7.45;;
54167;SDS011;68429;50.958;3.592;2024-02-26T07:00:44;10.00;;;9.02;;
54167;SDS011;68429;50.958;3.592;2024-02-26T07:03:11;8.82;;;7.93;;
54167;SDS011;68429;50.958;3.592;2024-02-26T07:05:38;9.48;;;8.43;;
54167;SDS011;68429;50.958;3.592;2024-02-26T07:08:04;12.60;;;7.40;;
54167;SDS011;68429;50.958;3.592;2024-02-26T07:10:30;10.13;;;7.57;;
54167;SDS011;68429;50.958;3.592;2024-02-26T07:12:56;6.53;;;5.65;;
54167;SDS011;68429;50.958;3.592;2024-02-26T07:15:21;12.55;;;7.82;;
54167;SDS011;68429;50.958;3.592;2024-02-26T07:17:47;8.18;;;7.40;;
54167;SDS011;68429;50.958;3.592;2024-02-26T07:20:14;6.55;;;5.95;;
54167;SDS011;68429;50.958;3.592;2024-02-26T07:22:40;7.47;;;6.78;;
54167;SDS011;68429;50.958;3.592;2024-02-26T07:25:09;7.90;;;7.10;;
54167;SDS011;68429;50.958;3.592;2024-02-26T07:27:38;7.20;;;6.50;;
54167;SDS011;68429;50.958;3.592;2024-02-26T07:30:05;6.55;;;5.95;;
54167;SDS011;68429;50.958;3.592;2024-02-26T07:32:31;6.30;;;5.18;;
54167;SDS011;68429;50.958;3.592;2024-02-26T07:34:57;7.70;;;6.63;;
54167;SDS011;68429;50.958;3.592;2024-02-26T07:37:22;6.13;;;5.38;;
54167;SDS011;68429;50.958;3.592;2024-02-26T07:39:48;8.20;;;6.22;;
54167;SDS011;68429;50.958;3.592;2024-02-26T07:42:14;6.65;;;5.95;;
54167;SDS011;68429;50.958;3.592;2024-02-26T07:44:39;7.00;;;3.95;;
54167;SDS011;68429;50.958;3.592;2024-02-26T07:47:08;9.25;;;5.22;;
54167;SDS011;68429;50.958;3.592;2024-02-26T07:49:34;5.88;;;4.65;;
54167;SDS011;68429;50.958;3.592;2024-02-26T07:51:59;5.25;;;4.75;;
54167;SDS011;68429;50.958;3.592;2024-02-26T07:54:25;7.35;;;5.28;;
54167;SDS011;68429;50.958;3.592;2024-02-26T07:56:51;5.75;;;4.95;;
54167;SDS011;68429;50.958;3.592;2024-02-26T07:59:16;6.25;;;5.65;;
54167;SDS011;68429;50.958;3.592;2024-02-26T08:01:42;5.38;;;4.78;;
54167;SDS011;68429;50.958;3.592;2024-02-26T08:04:08;6.50;;;4.88;;
54167;SDS011;68429;50.958;3.592;2024-02-26T08:06:34;7.32;;;6.32;;
54167;SDS011;68429;50.958;3.592;2024-02-26T08:08:59;7.28;;;6.57;;
54167;SDS011;68429;50.958;3.592;2024-02-26T08:11:25;7.65;;;5.88;;
54167;SDS011;68429;50.958;3.592;2024-02-26T08:13:51;7.78;;;5.63;;
54167;SDS011;68429;50.958;3.592;2024-02-26T08:16:16;5.35;;;4.90;;
54167;SDS011;68429;50.958;3.592;2024-02-26T08:18:42;5.38;;;4.28;;
54167;SDS011;68429;50.958;3.592;2024-02-26T08:21:07;11.48;;;5.63;;
54167;SDS011;68429;50.958;3.592;2024-02-26T08:23:33;6.50;;;5.90;;
54167;SDS011;68429;50.958;3.592;2024-02-26T08:25:59;8.05;;;6.18;;
54167;SDS011;68429;50.958;3.592;2024-02-26T08:28:25;7.13;;;4.25;;
54167;SDS011;68429;50.958;3.592;2024-02-26T08:30:50;5.88;;;5.25;;
54167;SDS011;68429;50.958;3.592;2024-02-26T08:33:16;6.90;;;4.82;;
54167;SDS011;68429;50.958;3.592;2024-02-26T08:35:41;6.75;;;5.53;;
54167;SDS011;68429;50.958;3.592;2024-02-26T08:38:07;7.93;;;5.82;;
54167;SDS011;68429;50.958;3.592;2024-02-26T08:40:33;6.13;;;4.72;;
54167;SDS011;68429;50.958;3.592;2024-02-26T08:42:58;7.18;;;5.45;;
54167;SDS011;68429;50.958;3.592;2024-02-26T08:45:24;8.50;;;6.45;;
54167;SDS011;68429;50.958;3.592;2024-02-26T08:47:52;7.50;;;6.68;;
54167;SDS011;68429;50.958;3.592;2024-02-26T08:50:17;7.93;;;6.78;;
54167;SDS011;68429;50.958;3.592;2024-02-26T08:52:43;6.43;;;5.22;;
54167;SDS011;68429;50.958;3.592;2024-02-26T08:55:13;5.82;;;5.15;;
54167;SDS011;68429;50.958;3.592;2024-02-26T08:57:39;8.40;;;5.88;;
54167;SDS011;68429;50.958;3.592;2024-02-26T09:00:05;7.53;;;6.75;;
54167;SDS011;68429;50.958;3.592;2024-02-26T09:02:31;6.88;;;6.10;;
54167;SDS011;68429;50.958;3.592;2024-02-26T09:04:57;7.18;;;6.47;;
54167;SDS011;68429;50.958;3.592;2024-02-26T09:07:23;7.00;;;5.88;;
54167;SDS011;68429;50.958;3.592;2024-02-26T09:09:49;9.48;;;7.63;;
54167;SDS011;68429;50.958;3.592;2024-02-26T09:12:14;11.00;;;7.50;;
54167;SDS011;68429;50.958;3.592;2024-02-26T09:14:40;11.30;;;7.38;;
54167;SDS011;68429;50.958;3.592;2024-02-26T09:17:06;9.40;;;6.75;;
54167;SDS011;68429;50.958;3.592;2024-02-26T09:19:32;10.02;;;6.60;;
54167;SDS011;68429;50.958;3.592;2024-02-26T09:21:58;6.70;;;5.57;;
54167;SDS011;68429;50.958;3.592;2024-02-26T09:24:24;7.50;;;6.72;;
54167;SDS011;68429;50.958;3.592;2024-02-26T09:26:51;10.15;;;7.10;;
54167;SDS011;68429;50.958;3.592;2024-02-26T09:29:16;9.68;;;6.13;;
54167;SDS011;68429;50.958;3.592;2024-02-26T09:31:42;14.07;;;8.25;;
54167;SDS011;68429;50.958;3.592;2024-02-26T09:34:12;9.40;;;7.82;;
54167;SDS011;68429;50.958;3.592;2024-02-26T09:36:37;9.25;;;7.35;;
54167;SDS011;68429;50.958;3.592;2024-02-26T09:39:03;11.75;;;6.93;;
54167;SDS011;68429;50.958;3.592;2024-02-26T09:41:28;9.85;;;7.03;;
54167;SDS011;68429;50.958;3.592;2024-02-26T09:43:57;9.82;;;8.82;;
54167;SDS011;68429;50.958;3.592;2024-02-26T09:46:27;9.70;;;8.60;;
54167;SDS011;68429;50.958;3.592;2024-02-26T09:48:53;11.65;;;9.23;;
54167;SDS011;68429;50.958;3.592;2024-02-26T09:51:19;6.68;;;5.97;;
54167;SDS011;68429;50.958;3.592;2024-02-26T09:53:48;10.02;;;8.70;;
54167;SDS011;68429;50.958;3.592;2024-02-26T09:56:17;10.45;;;9.23;;
54167;SDS011;68429;50.958;3.592;2024-02-26T09:58:43;10.20;;;6.68;;
54167;SDS011;68429;50.958;3.592;2024-02-26T10:01:13;10.57;;;8.32;;
54167;SDS011;68429;50.958;3.592;2024-02-26T10:03:44;12.57;;;9.75;;
54167;SDS011;68429;50.958;3.592;2024-02-26T10:06:17;9.18;;;7.15;;
54167;SDS011;68429;50.958;3.592;2024-02-26T10:08:43;10.70;;;7.53;;
54167;SDS011;68429;50.958;3.592;2024-02-26T10:11:09;12.30;;;9.43;;
54167;SDS011;68429;50.958;3.592;2024-02-26T10:13:35;11.15;;;9.95;;
54167;SDS011;68429;50.958;3.592;2024-02-26T10:16:02;8.90;;;7.82;;
54167;SDS011;68429;50.958;3.592;2024-02-26T10:18:50;9.27;;;8.02;;
54167;SDS011;68429;50.958;3.592;2024-02-26T10:21:18;9.52;;;8.52;;
54167;SDS011;68429;50.958;3.592;2024-02-26T10:23:45;12.10;;;9.30;;
54167;SDS011;68429;50.958;3.592;2024-02-26T10:26:15;10.70;;;9.43;;
54167;SDS011;68429;50.958;3.592;2024-02-26T10:28:42;13.25;;;7.75;;
54167;SDS011;68429;50.958;3.592;2024-02-26T10:31:09;8.60;;;5.82;;
54167;SDS011;68429;50.958;3.592;2024-02-26T10:33:36;8.68;;;5.70;;
54167;SDS011;68429;50.958;3.592;2024-02-26T10:36:06;10.30;;;8.30;;
54167;SDS011;68429;50.958;3.592;2024-02-26T10:38:35;13.07;;;9.35;;
54167;SDS011;68429;50.958;3.592;2024-02-26T10:41:02;6.07;;;5.18;;
54167;SDS011;68429;50.958;3.592;2024-02-26T10:43:28;10.70;;;9.07;;
54167;SDS011;68429;50.958;3.592;2024-02-26T10:45:55;10.52;;;8.93;;
54167;SDS011;68429;50.958;3.592;2024-02-26T10:48:21;12.07;;;8.75;;
54167;SDS011;68429;50.958;3.592;2024-02-26T10:50:46;12.85;;;10.00;;
54167;SDS011;68429;50.958;3.592;2024-02-26T10:53:13;14.30;;;7.80;;
54167;SDS011;68429;50.958;3.592;2024-02-26T10:56:08;10.98;;;8.82;;
54167;SDS011;68429;50.958;3.592;2024-02-26T10:58:34;10.48;;;7.80;;
54167;SDS011;68429;50.958;3.592;2024-02-26T11:01:00;10.48;;;7.55;;
54167;SDS011;68429;50.958;3.592;2024-02-26T11:03:28;20.25;;;6.53;;
54167;SDS011;68429;50.958;3.592;2024-02-26T11:05:57;10.43;;;8.63;;
54167;SDS011;68429;50.958;3.592;2024-02-26T11:08:23;14.63;;;9.43;;
54167;SDS011;68429;50.958;3.592;2024-02-26T11:10:52;13.70;;;9.55;;
54167;SDS011;68429;50.958;3.592;2024-02-26T11:13:19;11.52;;;6.82;;
54167;SDS011;68429;50.958;3.592;2024-02-26T11:15:46;15.65;;;10.80;;
54167;SDS011;68429;50.958;3.592;2024-02-26T11:18:15;18.08;;;11.13;;
54167;SDS011;68429;50.958;3.592;2024-02-26T11:20:44;12.63;;;8.48;;
54167;SDS011;68429;50.958;3.592;2024-02-26T11:23:11;15.73;;;10.90;;
54167;SDS011;68429;50.958;3.592;2024-02-26T11:25:37;18.00;;;11.85;;
54167;SDS011;68429;50.958;3.592;2024-02-26T11:28:05;17.92;;;12.35;;
54167;SDS011;68429;50.958;3.592;2024-02-26T11:30:38;20.15;;;13.13;;
54167;SDS011;68429;50.958;3.592;2024-02-26T11:33:08;17.02;;;13.35;;
54167;SDS011;68429;50.958;3.592;2024-02-26T11:35:35;12.25;;;8.55;;
54167;SDS011;68429;50.958;3.592;2024-02-26T11:38:01;21.17;;;14.05;;
54167;SDS011;68429;50.958;3.592;2024-02-26T11:40:28;14.52;;;11.00;;
54167;SDS011;68429;50.958;3.592;2024-02-26T11:42:56;20.45;;;14.02;;
54167;SDS011;68429;50.958;3.592;2024-02-26T11:48:21;18.80;;;13.98;;
54167;SDS011;68429;50.958;3.592;2024-02-26T11:50:54;13.65;;;9.15;;
54167;SDS011;68429;50.958;3.592;2024-02-26T11:53:24;14.82;;;12.10;;
54167;SDS011;68429;50.958;3.592;2024-02-26T11:58:59;17.33;;;12.10;;
54167;SDS011;68429;50.958;3.592;2024-02-26T12:04:05;14.73;;;11.80;;
54167;SDS011;68429;50.958;3.592;2024-02-26T12:09:31;20.00;;;13.05;;
54167;SDS011;68429;50.958;3.592;2024-02-26T12:14:26;16.17;;;12.80;;
54167;SDS011;68429;50.958;3.592;2024-02-26T12:16:52;14.63;;;11.48;;
54167;SDS011;68429;50.958;3.592;2024-02-26T12:19:20;13.18;;;10.93;;
54167;SDS011;68429;50.958;3.592;2024-02-26T12:21:50;13.18;;;10.80;;
54167;SDS011;68429;50.958;3.592;2024-02-26T12:24:18;14.10;;;10.77;;
54167;SDS011;68429;50.958;3.592;2024-02-26T12:26:45;10.77;;;8.50;;
54167;SDS011;68429;50.958;3.592;2024-02-26T12:29:10;12.95;;;9.68;;
54167;SDS011;68429;50.958;3.592;2024-02-26T12:31:36;10.55;;;8.90;;
54167;SDS011;68429;50.958;3.592;2024-02-26T12:34:04;9.55;;;8.15;;
54167;SDS011;68429;50.958;3.592;2024-02-26T12:36:31;12.10;;;9.60;;
54167;SDS011;68429;50.958;3.592;2024-02-26T12:39:02;9.00;;;8.07;;
54167;SDS011;68429;50.958;3.592;2024-02-26T12:41:30;9.05;;;7.65;;
54167;SDS011;68429;50.958;3.592;2024-02-26T12:43:57;10.18;;;9.13;;
54167;SDS011;68429;50.958;3.592;2024-02-26T12:46:26;11.45;;;9.63;;
54167;SDS011;68429;50.958;3.592;2024-02-26T12:48:54;6.68;;;6.00;;
54167;SDS011;68429;50.958;3.592;2024-02-26T12:51:22;8.60;;;6.45;;
54167;SDS011;68429;50.958;3.592;2024-02-26T12:53:49;7.35;;;6.05;;
54167;SDS011;68429;50.958;3.592;2024-02-26T12:56:17;7.90;;;5.93;;
54167;SDS011;68429;50.958;3.592;2024-02-26T12:58:43;8.30;;;6.10;;
54167;SDS011;68429;50.958;3.592;2024-02-26T13:01:14;9.52;;;6.30;;
54167;SDS011;68429;50.958;3.592;2024-02-26T13:03:42;9.20;;;7.28;;
54167;SDS011;68429;50.958;3.592;2024-02-26T13:06:08;7.88;;;5.90;;
54167;SDS011;68429;50.958;3.592;2024-02-26T13:08:34;6.60;;;6.00;;
54167;SDS011;68429;50.958;3.592;2024-02-26T13:11:00;7.68;;;6.05;;
54167;SDS011;68429;50.958;3.592;2024-02-26T13:13:26;7.90;;;6.65;;
54167;SDS011;68429;50.958;3.592;2024-02-26T13:16:04;8.98;;;6.25;;
54167;SDS011;68429;50.958;3.592;2024-02-26T13:18:33;5.97;;;5.38;;
54167;SDS011;68429;50.958;3.592;2024-02-26T13:21:09;7.00;;;5.22;;
54167;SDS011;68429;50.958;3.592;2024-02-26T13:23:35;6.55;;;5.85;;
54167;SDS011;68429;50.958;3.592;2024-02-26T13:26:01;7.38;;;4.90;;
54167;SDS011;68429;50.958;3.592;2024-02-26T13:28:27;6.05;;;4.43;;
54167;SDS011;68429;50.958;3.592;2024-02-26T13:30:56;6.18;;;5.57;;
54167;SDS011;68429;50.958;3.592;2024-02-26T13:33:23;6.65;;;5.95;;
54167;SDS011;68429;50.958;3.592;2024-02-26T13:35:50;10.65;;;5.18;;
54167;SDS011;68429;50.958;3.592;2024-02-26T13:38:16;5.38;;;4.88;;
54167;SDS011;68429;50.958;3.592;2024-02-26T13:40:42;6.43;;;4.70;;
54167;SDS011;68429;50.958;3.592;2024-02-26T13:43:08;8.40;;;4.35;;
54167;SDS011;68429;50.958;3.592;2024-02-26T13:45:34;7.03;;;5.40;;
54167;SDS011;68429;50.958;3.592;2024-02-26T13:48:09;6.93;;;6.20;;
54167;SDS011;68429;50.958;3.592;2024-02-26T13:50:36;6.03;;;4.68;;
54167;SDS011;68429;50.958;3.592;2024-02-26T13:53:03;12.20;;;4.80;;
54167;SDS011;68429;50.958;3.592;2024-02-26T13:55:29;7.82;;;5.47;;
54167;SDS011;68429;50.958;3.592;2024-02-26T13:57:57;6.88;;;5.85;;
54167;SDS011;68429;50.958;3.592;2024-02-26T14:00:23;12.77;;;3.75;;
54167;SDS011;68429;50.958;3.592;2024-02-26T14:02:49;5.03;;;4.53;;
54167;SDS011;68429;50.958;3.592;2024-02-26T14:05:16;7.38;;;5.35;;
54167;SDS011;68429;50.958;3.592;2024-02-26T14:07:42;5.55;;;4.65;;
54167;SDS011;68429;50.958;3.592;2024-02-26T14:10:08;5.32;;;4.82;;
54167;SDS011;68429;50.958;3.592;2024-02-26T14:12:36;6.80;;;5.30;;
54167;SDS011;68429;50.958;3.592;2024-02-26T14:15:02;4.93;;;3.38;;
54167;SDS011;68429;50.958;3.592;2024-02-26T14:17:30;7.53;;;6.45;;
54167;SDS011;68429;50.958;3.592;2024-02-26T14:19:56;7.10;;;6.40;;
54167;SDS011;68429;50.958;3.592;2024-02-26T14:22:21;4.72;;;4.20;;
54167;SDS011;68429;50.958;3.592;2024-02-26T14:24:47;4.60;;;3.78;;
54167;SDS011;68429;50.958;3.592;2024-02-26T14:27:13;6.55;;;5.70;;
54167;SDS011;68429;50.958;3.592;2024-02-26T14:29:45;7.60;;;5.90;;
54167;SDS011;68429;50.958;3.592;2024-02-26T14:32:11;4.82;;;4.15;;
54167;SDS011;68429;50.958;3.592;2024-02-26T14:34:36;5.95;;;5.32;;
54167;SDS011;68429;50.958;3.592;2024-02-26T14:37:02;5.50;;;4.55;;
54167;SDS011;68429;50.958;3.592;2024-02-26T14:39:29;5.88;;;3.67;;
54167;SDS011;68429;50.958;3.592;2024-02-26T14:41:56;7.60;;;5.88;;
54167;SDS011;68429;50.958;3.592;2024-02-26T14:44:22;5.63;;;5.13;;
54167;SDS011;68429;50.958;3.592;2024-02-26T14:46:49;5.72;;;4.28;;
54167;SDS011;68429;50.958;3.592;2024-02-26T14:49:14;6.20;;;5.57;;
54167;SDS011;68429;50.958;3.592;2024-02-26T14:51:40;6.88;;;5.50;;
54167;SDS011;68429;50.958;3.592;2024-02-26T14:54:06;4.30;;;3.90;;